Aviation Digital Data Service (ADDS)

Output produced by TAFs form (1042 UTC 03 July 2015)
found at http://www.aviationweather.gov/adds/tafs/
 
KBJC 031036Z AUTO 00000KT 10SM CLR 16/13 A3019 RMK AO2
KBJC 030539Z 0306/0406 25005KT P6SM FEW120 SCT200 
     FM031400 VRB06KT P6SM FEW080 SCT120 BKN200 
     FM032200 09006KT P6SM SCT080 BKN140 
     PROB30 0322/0402 VRB20G32KT -TSRA BKN080CB 
     FM040300 VRB05KT P6SM FEW080 SCT120